sensor_id;sensor_type;location;lat;lon;timestamp;pressure;altitude;pressure_sealevel;temperature;humidity
11395;BME280;5753;54.402;10.220;2023-07-29T00:00:57;100713.16;;;28.66;49.17
11395;BME280;5753;54.402;10.220;2023-07-29T00:03:23;100708.66;;;29.24;47.44
11395;BME280;5753;54.402;10.220;2023-07-29T00:05:50;100708.00;;;29.20;47.48
11395;BME280;5753;54.402;10.220;2023-07-29T00:08:16;100704.44;;;28.64;48.63
11395;BME280;5753;54.402;10.220;2023-07-29T00:10:42;100700.56;;;28.84;48.72
11395;BME280;5753;54.402;10.220;2023-07-29T00:13:08;100703.75;;;28.75;48.66
11395;BME280;5753;54.402;10.220;2023-07-29T00:15:34;100707.66;;;28.69;48.99
11395;BME280;5753;54.402;10.220;2023-07-29T00:18:01;100701.22;;;29.02;48.01
11395;BME280;5753;54.402;10.220;2023-07-29T00:20:27;100716.94;;;28.48;49.15
11395;BME280;5753;54.402;10.220;2023-07-29T00:22:53;100715.78;;;28.52;49.53
11395;BME280;5753;54.402;10.220;2023-07-29T00:25:21;100704.03;;;28.70;49.24
11395;BME280;5753;54.402;10.220;2023-07-29T00:27:47;100704.63;;;28.61;49.38
11395;BME280;5753;54.402;10.220;2023-07-29T00:30:13;100702.00;;;28.90;48.35
11395;BME280;5753;54.402;10.220;2023-07-29T00:32:39;100706.72;;;28.84;48.60
11395;BME280;5753;54.402;10.220;2023-07-29T00:35:06;100706.59;;;28.58;49.25
11395;BME280;5753;54.402;10.220;2023-07-29T00:37:32;100691.75;;;28.98;47.90
11395;BME280;5753;54.402;10.220;2023-07-29T00:39:58;100691.38;;;29.04;47.96
11395;BME280;5753;54.402;10.220;2023-07-29T00:42:25;100688.13;;;28.70;48.91
11395;BME280;5753;54.402;10.220;2023-07-29T00:44:51;100693.84;;;28.93;48.23
11395;BME280;5753;54.402;10.220;2023-07-29T00:47:17;100683.97;;;28.52;49.37
11395;BME280;5753;54.402;10.220;2023-07-29T00:49:44;100683.88;;;28.68;48.83
11395;BME280;5753;54.402;10.220;2023-07-29T00:52:11;100679.63;;;28.94;47.99
11395;BME280;5753;54.402;10.220;2023-07-29T00:54:39;100676.41;;;28.89;48.67
11395;BME280;5753;54.402;10.220;2023-07-29T00:57:08;100677.88;;;28.36;49.85
11395;BME280;5753;54.402;10.220;2023-07-29T00:59:35;100663.97;;;28.75;49.49
11395;BME280;5753;54.402;10.220;2023-07-29T01:02:02;100662.97;;;28.92;48.81
11395;BME280;5753;54.402;10.220;2023-07-29T01:04:28;100658.56;;;28.76;49.17
11395;BME280;5753;54.402;10.220;2023-07-29T01:10:02;100649.88;;;29.84;46.72
11395;BME280;5753;54.402;10.220;2023-07-29T01:15:21;100655.84;;;29.33;47.56
11395;BME280;5753;54.402;10.220;2023-07-29T01:17:54;100658.09;;;29.39;47.62
11395;BME280;5753;54.402;10.220;2023-07-29T01:20:22;100654.81;;;29.22;47.64
11395;BME280;5753;54.402;10.220;2023-07-29T01:22:49;100649.47;;;29.09;47.96
11395;BME280;5753;54.402;10.220;2023-07-29T01:25:16;100656.78;;;29.32;47.01
11395;BME280;5753;54.402;10.220;2023-07-29T01:27:44;100644.78;;;28.86;47.98
11395;BME280;5753;54.402;10.220;2023-07-29T01:30:11;100632.97;;;29.04;47.49
11395;BME280;5753;54.402;10.220;2023-07-29T01:32:53;100632.38;;;28.86;47.91
11395;BME280;5753;54.402;10.220;2023-07-29T01:38:24;100638.47;;;29.01;47.52
11395;BME280;5753;54.402;10.220;2023-07-29T01:40:55;100638.69;;;28.69;48.07
11395;BME280;5753;54.402;10.220;2023-07-29T01:43:22;100640.94;;;28.75;48.03
11395;BME280;5753;54.402;10.220;2023-07-29T01:45:51;100634.72;;;28.62;47.61
11395;BME280;5753;54.402;10.220;2023-07-29T01:48:17;100637.53;;;28.73;47.41
11395;BME280;5753;54.402;10.220;2023-07-29T01:50:43;100642.19;;;28.84;47.23
11395;BME280;5753;54.402;10.220;2023-07-29T01:53:09;100658.31;;;28.52;48.03
11395;BME280;5753;54.402;10.220;2023-07-29T01:55:35;100667.47;;;28.61;47.91
11395;BME280;5753;54.402;10.220;2023-07-29T01:58:01;100645.53;;;28.45;48.02
11395;BME280;5753;54.402;10.220;2023-07-29T02:00:27;100631.69;;;28.54;47.96
11395;BME280;5753;54.402;10.220;2023-07-29T02:02:53;100644.94;;;28.68;47.87
11395;BME280;5753;54.402;10.220;2023-07-29T02:05:19;100660.44;;;28.32;48.90
11395;BME280;5753;54.402;10.220;2023-07-29T02:07:45;100654.78;;;28.38;48.20
11395;BME280;5753;54.402;10.220;2023-07-29T02:10:12;100646.06;;;28.36;48.60
11395;BME280;5753;54.402;10.220;2023-07-29T02:12:38;100633.03;;;28.47;48.20
11395;BME280;5753;54.402;10.220;2023-07-29T02:15:04;100639.53;;;28.70;47.81
11395;BME280;5753;54.402;10.220;2023-07-29T02:17:31;100649.09;;;28.72;48.01
11395;BME280;5753;54.402;10.220;2023-07-29T02:19:57;100639.28;;;28.46;48.56
11395;BME280;5753;54.402;10.220;2023-07-29T02:22:23;100639.66;;;28.54;48.32
11395;BME280;5753;54.402;10.220;2023-07-29T02:24:49;100631.13;;;28.49;48.34
11395;BME280;5753;54.402;10.220;2023-07-29T02:27:15;100633.97;;;28.60;48.00
11395;BME280;5753;54.402;10.220;2023-07-29T02:29:41;100627.47;;;28.78;47.78
11395;BME280;5753;54.402;10.220;2023-07-29T02:32:08;100631.88;;;28.51;48.31
11395;BME280;5753;54.402;10.220;2023-07-29T02:34:34;100625.97;;;28.32;48.45
11395;BME280;5753;54.402;10.220;2023-07-29T02:37:00;100617.19;;;28.45;48.30
11395;BME280;5753;54.402;10.220;2023-07-29T02:39:26;100616.84;;;27.93;49.43
11395;BME280;5753;54.402;10.220;2023-07-29T02:41:52;100612.34;;;28.38;48.23
11395;BME280;5753;54.402;10.220;2023-07-29T02:44:18;100611.25;;;28.42;48.08
11395;BME280;5753;54.402;10.220;2023-07-29T02:46:46;100613.91;;;28.42;48.45
11395;BME280;5753;54.402;10.220;2023-07-29T02:49:12;100615.38;;;28.74;48.05
11395;BME280;5753;54.402;10.220;2023-07-29T02:51:38;100618.06;;;28.46;48.47
11395;BME280;5753;54.402;10.220;2023-07-29T02:54:04;100617.97;;;28.47;48.56
11395;BME280;5753;54.402;10.220;2023-07-29T02:56:30;100615.38;;;28.74;47.65
11395;BME280;5753;54.402;10.220;2023-07-29T02:58:59;100609.13;;;28.61;47.99
11395;BME280;5753;54.402;10.220;2023-07-29T03:01:26;100601.16;;;28.75;47.40
11395;BME280;5753;54.402;10.220;2023-07-29T03:03:52;100605.13;;;28.97;47.52
11395;BME280;5753;54.402;10.220;2023-07-29T03:06:18;100608.13;;;29.05;46.87
11395;BME280;5753;54.402;10.220;2023-07-29T03:08:45;100607.69;;;28.98;47.00
11395;BME280;5753;54.402;10.220;2023-07-29T03:11:13;100607.38;;;29.03;46.88
11395;BME280;5753;54.402;10.220;2023-07-29T03:13:40;100612.63;;;28.90;47.24
11395;BME280;5753;54.402;10.220;2023-07-29T03:16:11;100603.78;;;29.04;47.08
11395;BME280;5753;54.402;10.220;2023-07-29T03:18:38;100598.03;;;28.97;47.31
11395;BME280;5753;54.402;10.220;2023-07-29T03:21:04;100585.59;;;28.98;47.08
11395;BME280;5753;54.402;10.220;2023-07-29T03:23:32;100597.22;;;28.54;48.07
11395;BME280;5753;54.402;10.220;2023-07-29T03:26:00;100598.31;;;28.93;47.35
11395;BME280;5753;54.402;10.220;2023-07-29T03:28:28;100603.94;;;28.88;47.32
11395;BME280;5753;54.402;10.220;2023-07-29T03:30:55;100605.47;;;29.05;47.13
11395;BME280;5753;54.402;10.220;2023-07-29T03:33:22;100605.28;;;29.08;47.02
11395;BME280;5753;54.402;10.220;2023-07-29T03:35:48;100607.78;;;28.97;47.27
11395;BME280;5753;54.402;10.220;2023-07-29T03:38:15;100603.66;;;28.50;48.23
11395;BME280;5753;54.402;10.220;2023-07-29T03:40:42;100601.72;;;28.66;47.78
11395;BME280;5753;54.402;10.220;2023-07-29T03:43:08;100604.22;;;28.55;47.85
11395;BME280;5753;54.402;10.220;2023-07-29T03:45:36;100603.63;;;28.64;48.14
11395;BME280;5753;54.402;10.220;2023-07-29T03:48:03;100592.06;;;28.94;47.34
11395;BME280;5753;54.402;10.220;2023-07-29T03:50:30;100599.47;;;28.60;47.92
11395;BME280;5753;54.402;10.220;2023-07-29T03:52:56;100596.41;;;28.95;47.36
11395;BME280;5753;54.402;10.220;2023-07-29T03:55:23;100601.81;;;28.79;47.46
11395;BME280;5753;54.402;10.220;2023-07-29T03:57:49;100603.47;;;28.25;48.94
11395;BME280;5753;54.402;10.220;2023-07-29T04:00:15;100591.16;;;28.52;48.71
11395;BME280;5753;54.402;10.220;2023-07-29T04:02:42;100597.59;;;27.89;50.29
11395;BME280;5753;54.402;10.220;2023-07-29T04:05:08;100597.75;;;28.73;48.15
11395;BME280;5753;54.402;10.220;2023-07-29T04:07:35;100599.94;;;28.67;48.62
11395;BME280;5753;54.402;10.220;2023-07-29T04:10:02;100599.81;;;28.97;47.66
11395;BME280;5753;54.402;10.220;2023-07-29T04:12:28;100595.28;;;28.99;48.02
11395;BME280;5753;54.402;10.220;2023-07-29T04:14:54;100598.22;;;29.21;47.46
11395;BME280;5753;54.402;10.220;2023-07-29T04:17:21;100602.19;;;29.01;48.09
11395;BME280;5753;54.402;10.220;2023-07-29T04:19:47;100598.44;;;29.31;47.05
11395;BME280;5753;54.402;10.220;2023-07-29T04:22:14;100595.81;;;29.04;47.93
11395;BME280;5753;54.402;10.220;2023-07-29T04:24:40;100595.75;;;29.18;47.39
11395;BME280;5753;54.402;10.220;2023-07-29T04:27:06;100599.81;;;28.97;47.74
11395;BME280;5753;54.402;10.220;2023-07-29T04:29:32;100596.28;;;28.82;48.00
11395;BME280;5753;54.402;10.220;2023-07-29T04:32:04;100585.53;;;28.85;48.45
11395;BME280;5753;54.402;10.220;2023-07-29T04:34:31;100587.31;;;28.84;48.79
11395;BME280;5753;54.402;10.220;2023-07-29T04:36:57;100589.69;;;29.16;47.68
11395;BME280;5753;54.402;10.220;2023-07-29T04:39:23;100609.19;;;29.29;46.97
11395;BME280;5753;54.402;10.220;2023-07-29T04:41:49;100625.59;;;28.38;49.25
11395;BME280;5753;54.402;10.220;2023-07-29T04:44:15;100639.41;;;27.54;52.25
11395;BME280;5753;54.402;10.220;2023-07-29T04:46:41;100620.78;;;27.40;53.46
11395;BME280;5753;54.402;10.220;2023-07-29T04:49:07;100624.81;;;28.07;51.47
11395;BME280;5753;54.402;10.220;2023-07-29T04:51:33;100618.88;;;27.88;51.88
11395;BME280;5753;54.402;10.220;2023-07-29T04:54:00;100605.91;;;28.28;51.47
11395;BME280;5753;54.402;10.220;2023-07-29T04:56:26;100595.00;;;28.18;51.46
11395;BME280;5753;54.402;10.220;2023-07-29T04:58:52;100587.72;;;28.64;50.28
11395;BME280;5753;54.402;10.220;2023-07-29T05:01:19;100586.19;;;28.74;49.83
11395;BME280;5753;54.402;10.220;2023-07-29T05:03:45;100580.25;;;27.24;54.10
11395;BME280;5753;54.402;10.220;2023-07-29T05:06:12;100584.75;;;28.97;49.67
11395;BME280;5753;54.402;10.220;2023-07-29T05:08:38;100585.94;;;29.06;49.21
11395;BME280;5753;54.402;10.220;2023-07-29T05:11:04;100590.84;;;28.71;50.46
11395;BME280;5753;54.402;10.220;2023-07-29T05:13:30;100576.91;;;28.96;50.05
11395;BME280;5753;54.402;10.220;2023-07-29T05:15:56;100564.03;;;28.90;49.96
11395;BME280;5753;54.402;10.220;2023-07-29T05:18:22;100569.41;;;29.15;49.86
11395;BME280;5753;54.402;10.220;2023-07-29T05:20:49;100566.69;;;29.29;49.51
11395;BME280;5753;54.402;10.220;2023-07-29T05:23:15;100581.50;;;29.33;50.05
11395;BME280;5753;54.402;10.220;2023-07-29T05:25:41;100573.13;;;29.12;50.48
11395;BME280;5753;54.402;10.220;2023-07-29T05:28:07;100590.50;;;29.58;49.06
11395;BME280;5753;54.402;10.220;2023-07-29T05:30:33;100584.31;;;29.44;49.60
11395;BME280;5753;54.402;10.220;2023-07-29T05:33:03;100579.28;;;29.13;50.58
11395;BME280;5753;54.402;10.220;2023-07-29T05:35:30;100574.28;;;28.53;51.76
11395;BME280;5753;54.402;10.220;2023-07-29T05:37:56;100576.84;;;29.10;51.09
11395;BME280;5753;54.402;10.220;2023-07-29T05:40:22;100564.69;;;29.60;49.64
11395;BME280;5753;54.402;10.220;2023-07-29T05:42:48;100563.19;;;29.56;49.36
11395;BME280;5753;54.402;10.220;2023-07-29T05:45:14;100568.84;;;29.64;49.68
11395;BME280;5753;54.402;10.220;2023-07-29T05:47:41;100564.69;;;29.72;49.97
11395;BME280;5753;54.402;10.220;2023-07-29T05:50:07;100565.91;;;29.14;51.01
11395;BME280;5753;54.402;10.220;2023-07-29T05:52:34;100565.38;;;29.09;51.53
11395;BME280;5753;54.402;10.220;2023-07-29T05:55:01;100564.78;;;29.31;50.76
11395;BME280;5753;54.402;10.220;2023-07-29T05:57:27;100549.94;;;29.81;49.76
11395;BME280;5753;54.402;10.220;2023-07-29T05:59:53;100549.59;;;28.79;51.47
11395;BME280;5753;54.402;10.220;2023-07-29T06:02:20;100554.28;;;29.57;50.10
11395;BME280;5753;54.402;10.220;2023-07-29T06:04:46;100541.44;;;28.97;50.82
11395;BME280;5753;54.402;10.220;2023-07-29T06:07:12;100542.22;;;29.38;50.86
11395;BME280;5753;54.402;10.220;2023-07-29T06:09:38;100541.59;;;29.08;50.69
11395;BME280;5753;54.402;10.220;2023-07-29T06:12:05;100543.47;;;29.98;49.14
11395;BME280;5753;54.402;10.220;2023-07-29T06:14:31;100543.19;;;29.10;51.76
11395;BME280;5753;54.402;10.220;2023-07-29T06:16:57;100541.03;;;29.03;51.64
11395;BME280;5753;54.402;10.220;2023-07-29T06:19:23;100546.97;;;29.98;50.37
11395;BME280;5753;54.402;10.220;2023-07-29T06:21:49;100551.81;;;29.66;50.92
11395;BME280;5753;54.402;10.220;2023-07-29T06:24:15;100548.44;;;29.77;51.19
11395;BME280;5753;54.402;10.220;2023-07-29T06:26:41;100544.38;;;29.59;50.69
11395;BME280;5753;54.402;10.220;2023-07-29T06:29:07;100539.69;;;30.51;49.28
11395;BME280;5753;54.402;10.220;2023-07-29T06:31:33;100545.81;;;31.01;48.13
11395;BME280;5753;54.402;10.220;2023-07-29T06:34:00;100543.66;;;31.06;48.06
11395;BME280;5753;54.402;10.220;2023-07-29T06:36:26;100541.06;;;31.76;48.55
11395;BME280;5753;54.402;10.220;2023-07-29T06:38:52;100538.97;;;31.34;46.64
11395;BME280;5753;54.402;10.220;2023-07-29T06:41:18;100543.84;;;31.51;47.12
11395;BME280;5753;54.402;10.220;2023-07-29T06:43:44;100538.16;;;31.90;46.22
11395;BME280;5753;54.402;10.220;2023-07-29T06:46:10;100543.50;;;31.90;46.17
11395;BME280;5753;54.402;10.220;2023-07-29T06:48:37;100544.69;;;31.86;46.19
11395;BME280;5753;54.402;10.220;2023-07-29T06:51:03;100540.81;;;32.13;46.08
11395;BME280;5753;54.402;10.220;2023-07-29T06:53:29;100541.84;;;32.34;44.59
11395;BME280;5753;54.402;10.220;2023-07-29T06:55:55;100538.44;;;32.32;44.94
11395;BME280;5753;54.402;10.220;2023-07-29T06:58:21;100543.25;;;31.93;45.68
11395;BME280;5753;54.402;10.220;2023-07-29T07:00:47;100539.13;;;32.12;45.68
11395;BME280;5753;54.402;10.220;2023-07-29T07:03:13;100532.25;;;32.20;44.79
11395;BME280;5753;54.402;10.220;2023-07-29T07:05:39;100537.25;;;32.25;45.07
11395;BME280;5753;54.402;10.220;2023-07-29T07:08:06;100535.63;;;31.54;46.72
11395;BME280;5753;54.402;10.220;2023-07-29T07:10:32;100531.84;;;31.45;47.11
11395;BME280;5753;54.402;10.220;2023-07-29T07:12:59;100538.94;;;30.49;48.85
11395;BME280;5753;54.402;10.220;2023-07-29T07:15:25;100540.25;;;31.04;47.74
11395;BME280;5753;54.402;10.220;2023-07-29T07:17:52;100528.19;;;31.11;47.62
11395;BME280;5753;54.402;10.220;2023-07-29T07:20:18;100537.00;;;32.28;46.10
11395;BME280;5753;54.402;10.220;2023-07-29T07:22:44;100545.44;;;31.88;46.80
11395;BME280;5753;54.402;10.220;2023-07-29T07:25:10;100528.69;;;32.53;46.40
11395;BME280;5753;54.402;10.220;2023-07-29T07:27:37;100529.16;;;32.59;45.23
11395;BME280;5753;54.402;10.220;2023-07-29T07:30:03;100522.16;;;32.24;46.00
11395;BME280;5753;54.402;10.220;2023-07-29T07:32:30;100535.41;;;31.57;47.92
11395;BME280;5753;54.402;10.220;2023-07-29T07:34:56;100529.19;;;31.80;47.04
11395;BME280;5753;54.402;10.220;2023-07-29T07:37:22;100531.59;;;32.06;46.01
11395;BME280;5753;54.402;10.220;2023-07-29T07:39:48;100517.66;;;32.58;45.47
11395;BME280;5753;54.402;10.220;2023-07-29T07:42:14;100515.00;;;31.91;46.07
11395;BME280;5753;54.402;10.220;2023-07-29T07:44:40;100508.44;;;32.51;44.89
11395;BME280;5753;54.402;10.220;2023-07-29T07:47:06;100508.84;;;30.85;47.95
11395;BME280;5753;54.402;10.220;2023-07-29T07:49:32;100509.94;;;31.42;47.24
11395;BME280;5753;54.402;10.220;2023-07-29T07:51:58;100517.22;;;31.62;47.00
11395;BME280;5753;54.402;10.220;2023-07-29T07:54:24;100516.47;;;31.84;47.83
11395;BME280;5753;54.402;10.220;2023-07-29T07:56:50;100510.75;;;32.00;46.59
11395;BME280;5753;54.402;10.220;2023-07-29T07:59:17;100513.44;;;32.44;46.08
11395;BME280;5753;54.402;10.220;2023-07-29T08:01:43;100507.34;;;32.65;45.50
11395;BME280;5753;54.402;10.220;2023-07-29T08:04:09;100510.53;;;32.03;47.33
11395;BME280;5753;54.402;10.220;2023-07-29T08:06:35;100514.63;;;32.51;45.75
11395;BME280;5753;54.402;10.220;2023-07-29T08:09:01;100516.78;;;32.58;45.72
11395;BME280;5753;54.402;10.220;2023-07-29T08:11:27;100504.50;;;31.66;47.80
11395;BME280;5753;54.402;10.220;2023-07-29T08:13:53;100504.97;;;32.28;47.35
11395;BME280;5753;54.402;10.220;2023-07-29T08:16:19;100505.88;;;32.72;45.98
11395;BME280;5753;54.402;10.220;2023-07-29T08:18:46;100508.34;;;32.19;46.71
11395;BME280;5753;54.402;10.220;2023-07-29T08:21:13;100505.88;;;32.61;45.47
11395;BME280;5753;54.402;10.220;2023-07-29T08:23:39;100519.41;;;31.57;48.11
11395;BME280;5753;54.402;10.220;2023-07-29T08:26:06;100513.91;;;31.82;47.98
11395;BME280;5753;54.402;10.220;2023-07-29T08:28:37;100515.44;;;32.63;45.72
11395;BME280;5753;54.402;10.220;2023-07-29T08:31:04;100519.00;;;31.85;47.17
11395;BME280;5753;54.402;10.220;2023-07-29T08:33:31;100518.16;;;32.07;46.58
11395;BME280;5753;54.402;10.220;2023-07-29T08:35:59;100518.44;;;31.69;47.30
11395;BME280;5753;54.402;10.220;2023-07-29T08:38:25;100509.31;;;32.40;46.38
11395;BME280;5753;54.402;10.220;2023-07-29T08:41:06;100514.06;;;32.91;45.75
11395;BME280;5753;54.402;10.220;2023-07-29T08:43:39;100512.81;;;31.74;46.86
11395;BME280;5753;54.402;10.220;2023-07-29T08:46:07;100522.53;;;32.19;47.00
11395;BME280;5753;54.402;10.220;2023-07-29T08:48:40;100522.16;;;31.90;46.55
11395;BME280;5753;54.402;10.220;2023-07-29T08:51:11;100514.63;;;31.73;46.77
11395;BME280;5753;54.402;10.220;2023-07-29T08:53:38;100515.50;;;31.50;46.87
11395;BME280;5753;54.402;10.220;2023-07-29T08:56:06;100511.34;;;33.34;45.35
11395;BME280;5753;54.402;10.220;2023-07-29T08:58:33;100515.09;;;34.55;42.23
11395;BME280;5753;54.402;10.220;2023-07-29T09:00:59;100507.88;;;34.06;42.16
11395;BME280;5753;54.402;10.220;2023-07-29T09:03:26;100499.91;;;33.95;42.58
11395;BME280;5753;54.402;10.220;2023-07-29T09:05:53;100511.41;;;33.44;43.72
11395;BME280;5753;54.402;10.220;2023-07-29T09:08:22;100509.00;;;33.41;42.55
11395;BME280;5753;54.402;10.220;2023-07-29T09:10:49;100500.09;;;34.33;40.98
11395;BME280;5753;54.402;10.220;2023-07-29T09:13:15;100505.22;;;34.56;40.05
11395;BME280;5753;54.402;10.220;2023-07-29T09:15:41;100498.44;;;34.52;40.60
11395;BME280;5753;54.402;10.220;2023-07-29T09:18:14;100499.63;;;34.97;39.78
11395;BME280;5753;54.402;10.220;2023-07-29T09:20:40;100497.78;;;34.69;39.38
11395;BME280;5753;54.402;10.220;2023-07-29T09:23:10;100492.50;;;34.38;40.43
11395;BME280;5753;54.402;10.220;2023-07-29T09:25:37;100490.44;;;34.61;40.66
11395;BME280;5753;54.402;10.220;2023-07-29T09:28:14;100493.91;;;34.42;40.90
11395;BME280;5753;54.402;10.220;2023-07-29T09:30:42;100493.44;;;35.16;39.25
11395;BME280;5753;54.402;10.220;2023-07-29T09:33:09;100490.44;;;34.71;40.25
11395;BME280;5753;54.402;10.220;2023-07-29T09:35:37;100487.03;;;33.58;41.11
11395;BME280;5753;54.402;10.220;2023-07-29T09:38:05;100489.56;;;33.18;41.76
11395;BME280;5753;54.402;10.220;2023-07-29T09:40:39;100489.47;;;34.72;40.07
11395;BME280;5753;54.402;10.220;2023-07-29T09:43:06;100477.00;;;34.52;39.59
11395;BME280;5753;54.402;10.220;2023-07-29T09:45:34;100490.19;;;33.94;41.25
11395;BME280;5753;54.402;10.220;2023-07-29T09:48:02;100494.47;;;33.34;41.81
11395;BME280;5753;54.402;10.220;2023-07-29T09:50:29;100481.47;;;34.32;40.19
11395;BME280;5753;54.402;10.220;2023-07-29T09:52:56;100478.72;;;33.31;41.50
11395;BME280;5753;54.402;10.220;2023-07-29T09:55:25;100484.75;;;32.80;42.81
11395;BME280;5753;54.402;10.220;2023-07-29T09:58:01;100482.31;;;33.30;42.58
11395;BME280;5753;54.402;10.220;2023-07-29T10:00:30;100473.22;;;33.53;41.53
11395;BME280;5753;54.402;10.220;2023-07-29T10:02:57;100474.22;;;34.82;39.94
11395;BME280;5753;54.402;10.220;2023-07-29T10:05:26;100470.88;;;34.90;39.63
11395;BME280;5753;54.402;10.220;2023-07-29T10:07:54;100473.13;;;33.85;41.08
11395;BME280;5753;54.402;10.220;2023-07-29T10:10:21;100467.28;;;34.51;40.30
11395;BME280;5753;54.402;10.220;2023-07-29T10:12:47;100468.19;;;34.11;40.52
11395;BME280;5753;54.402;10.220;2023-07-29T10:15:14;100469.31;;;34.68;40.07
11395;BME280;5753;54.402;10.220;2023-07-29T10:17:40;100473.69;;;34.88;39.33
11395;BME280;5753;54.402;10.220;2023-07-29T10:20:11;100481.84;;;33.36;40.16
11395;BME280;5753;54.402;10.220;2023-07-29T10:22:41;100465.47;;;34.51;39.41
11395;BME280;5753;54.402;10.220;2023-07-29T10:25:24;100470.31;;;34.17;38.75
11395;BME280;5753;54.402;10.220;2023-07-29T10:27:55;100463.06;;;34.38;37.88
11395;BME280;5753;54.402;10.220;2023-07-29T10:30:24;100466.34;;;33.81;37.68
11395;BME280;5753;54.402;10.220;2023-07-29T10:32:50;100452.66;;;33.54;38.45
11395;BME280;5753;54.402;10.220;2023-07-29T10:35:19;100457.25;;;33.93;37.76
11395;BME280;5753;54.402;10.220;2023-07-29T10:37:45;100462.81;;;35.48;35.63
11395;BME280;5753;54.402;10.220;2023-07-29T10:40:12;100460.84;;;34.63;36.02
11395;BME280;5753;54.402;10.220;2023-07-29T10:42:41;100459.75;;;35.14;35.87
11395;BME280;5753;54.402;10.220;2023-07-29T10:45:24;100460.22;;;33.69;37.82
11395;BME280;5753;54.402;10.220;2023-07-29T10:47:51;100447.59;;;34.61;37.16
11395;BME280;5753;54.402;10.220;2023-07-29T10:50:18;100451.69;;;35.14;35.53
11395;BME280;5753;54.402;10.220;2023-07-29T10:52:49;100445.81;;;35.00;36.90
11395;BME280;5753;54.402;10.220;2023-07-29T10:55:34;100442.47;;;33.89;37.76
11395;BME280;5753;54.402;10.220;2023-07-29T10:58:20;100447.31;;;35.79;35.33
11395;BME280;5753;54.402;10.220;2023-07-29T11:00:46;100448.59;;;35.18;34.85
11395;BME280;5753;54.402;10.220;2023-07-29T11:03:13;100436.69;;;33.94;36.88
11395;BME280;5753;54.402;10.220;2023-07-29T11:05:48;100441.91;;;34.35;37.08
11395;BME280;5753;54.402;10.220;2023-07-29T11:11:01;100439.00;;;34.58;36.46
11395;BME280;5753;54.402;10.220;2023-07-29T11:13:28;100437.03;;;32.86;39.00
11395;BME280;5753;54.402;10.220;2023-07-29T11:15:55;100429.91;;;34.30;36.63
11395;BME280;5753;54.402;10.220;2023-07-29T11:18:28;100433.34;;;34.80;35.22
11395;BME280;5753;54.402;10.220;2023-07-29T11:20:55;100432.19;;;36.42;33.34
11395;BME280;5753;54.402;10.220;2023-07-29T11:23:28;100431.47;;;35.95;33.12
11395;BME280;5753;54.402;10.220;2023-07-29T11:25:55;100426.28;;;34.40;35.52
11395;BME280;5753;54.402;10.220;2023-07-29T11:28:21;100430.19;;;36.17;33.38
11395;BME280;5753;54.402;10.220;2023-07-29T11:30:49;100436.56;;;34.35;35.20
11395;BME280;5753;54.402;10.220;2023-07-29T11:33:19;100447.63;;;34.21;35.65
11395;BME280;5753;54.402;10.220;2023-07-29T11:35:45;100422.09;;;33.67;36.88
11395;BME280;5753;54.402;10.220;2023-07-29T11:38:16;100427.69;;;33.95;35.93
11395;BME280;5753;54.402;10.220;2023-07-29T11:40:42;100430.06;;;33.88;36.24
11395;BME280;5753;54.402;10.220;2023-07-29T11:43:08;100424.31;;;32.79;36.81
11395;BME280;5753;54.402;10.220;2023-07-29T11:45:35;100428.22;;;32.20;37.83
11395;BME280;5753;54.402;10.220;2023-07-29T11:48:04;100423.81;;;32.74;36.60
11395;BME280;5753;54.402;10.220;2023-07-29T11:50:33;100430.13;;;32.84;36.12
11395;BME280;5753;54.402;10.220;2023-07-29T11:53:00;100425.03;;;34.45;34.85
11395;BME280;5753;54.402;10.220;2023-07-29T11:55:27;100429.13;;;34.97;35.17
11395;BME280;5753;54.402;10.220;2023-07-29T11:57:53;100424.28;;;36.58;32.98
11395;BME280;5753;54.402;10.220;2023-07-29T12:00:19;100419.06;;;36.57;32.44
11395;BME280;5753;54.402;10.220;2023-07-29T12:02:47;100432.06;;;36.79;32.16
11395;BME280;5753;54.402;10.220;2023-07-29T12:05:15;100425.75;;;36.25;31.70
11395;BME280;5753;54.402;10.220;2023-07-29T12:07:44;100418.31;;;36.65;31.63
11395;BME280;5753;54.402;10.220;2023-07-29T12:10:11;100417.22;;;38.96;29.83
11395;BME280;5753;54.402;10.220;2023-07-29T12:12:49;100426.97;;;38.56;30.03
11395;BME280;5753;54.402;10.220;2023-07-29T12:15:27;100426.78;;;38.33;30.02
11395;BME280;5753;54.402;10.220;2023-07-29T12:17:55;100429.31;;;38.59;29.05
11395;BME280;5753;54.402;10.220;2023-07-29T12:20:22;100428.97;;;38.46;28.72
11395;BME280;5753;54.402;10.220;2023-07-29T12:22:56;100424.94;;;37.14;29.64
11395;BME280;5753;54.402;10.220;2023-07-29T12:25:22;100439.31;;;38.91;28.78
11395;BME280;5753;54.402;10.220;2023-07-29T12:27:49;100427.16;;;39.36;28.88
11395;BME280;5753;54.402;10.220;2023-07-29T12:30:15;100421.91;;;38.45;29.01
11395;BME280;5753;54.402;10.220;2023-07-29T12:32:46;100431.38;;;36.95;29.47
11395;BME280;5753;54.402;10.220;2023-07-29T12:35:13;100432.72;;;36.64;30.20
11395;BME280;5753;54.402;10.220;2023-07-29T12:37:39;100444.53;;;35.71;31.67
11395;BME280;5753;54.402;10.220;2023-07-29T12:40:30;100432.97;;;34.06;34.11
11395;BME280;5753;54.402;10.220;2023-07-29T12:42:55;100430.75;;;34.30;34.03
11395;BME280;5753;54.402;10.220;2023-07-29T12:45:22;100432.25;;;36.33;31.00
11395;BME280;5753;54.402;10.220;2023-07-29T12:47:52;100422.22;;;36.70;30.36
11395;BME280;5753;54.402;10.220;2023-07-29T12:50:18;100430.88;;;37.43;29.66
11395;BME280;5753;54.402;10.220;2023-07-29T12:52:45;100436.00;;;36.75;30.94
11395;BME280;5753;54.402;10.220;2023-07-29T12:55:11;100444.84;;;36.68;31.08
11395;BME280;5753;54.402;10.220;2023-07-29T12:57:41;100435.56;;;36.98;30.40
11395;BME280;5753;54.402;10.220;2023-07-29T13:00:08;100443.84;;;39.23;27.98
11395;BME280;5753;54.402;10.220;2023-07-29T13:02:34;100435.03;;;40.40;26.70